createdAt,value
2018-06-02T00:00:30.622Z,100.00
2018-06-02T00:02:58.209Z,100.00
2018-06-02T00:05:26.613Z,100.00
2018-06-02T00:07:54.198Z,100.00
2018-06-02T00:10:21.916Z,100.00
2018-06-02T00:12:49.506Z,100.00
2018-06-02T00:15:17.205Z,100.00
2018-06-02T00:17:44.795Z,100.00
2018-06-02T00:20:12.381Z,100.00
2018-06-02T00:22:39.965Z,100.00
2018-06-02T00:25:07.650Z,100.00
2018-06-02T00:27:36.061Z,100.00
2018-06-02T00:30:05.239Z,100.00
2018-06-02T00:32:32.872Z,100.00
2018-06-02T00:35:00.456Z,100.00
2018-06-02T00:37:28.076Z,100.00
2018-06-02T00:39:55.662Z,100.00
2018-06-02T00:42:23.296Z,100.00
2018-06-02T00:44:50.876Z,100.00
2018-06-02T00:47:18.491Z,100.00
2018-06-02T00:49:46.835Z,100.00
2018-06-02T00:52:14.429Z,100.00
2018-06-02T00:54:53.896Z,100.00
2018-06-02T00:57:21.484Z,100.00
2018-06-02T00:59:49.121Z,100.00
2018-06-02T01:02:16.715Z,100.00
2018-06-02T01:04:44.393Z,100.00
2018-06-02T01:07:12.688Z,100.00
2018-06-02T01:09:41.253Z,100.00
2018-06-02T01:12:08.917Z,100.00
2018-06-02T01:14:36.506Z,100.00
2018-06-02T01:17:05.065Z,100.00
2018-06-02T01:19:33.595Z,100.00
2018-06-02T01:22:02.032Z,100.00
2018-06-02T01:24:30.515Z,100.00
2018-06-02T01:26:59.022Z,100.00
2018-06-02T01:29:26.609Z,100.00
2018-06-02T01:31:54.453Z,100.00
2018-06-02T01:34:23.029Z,100.00
2018-06-02T01:36:51.497Z,100.00
2018-06-02T01:39:20.042Z,100.00
2018-06-02T01:41:47.985Z,100.00
2018-06-02T01:44:16.338Z,100.00
2018-06-02T01:46:43.931Z,100.00
2018-06-02T01:49:12.364Z,100.00
2018-06-02T01:51:40.737Z,100.00
2018-06-02T01:54:09.177Z,100.00
2018-06-02T01:56:37.709Z,100.00
2018-06-02T01:59:06.172Z,100.00
2018-06-02T02:01:33.852Z,100.00
2018-06-02T02:04:01.513Z,100.00
2018-06-02T02:06:29.159Z,100.00
2018-06-02T02:08:56.746Z,100.00
2018-06-02T02:11:24.324Z,100.00
2018-06-02T02:13:52.715Z,100.00
2018-06-02T02:16:20.774Z,100.00
2018-06-02T02:18:49.285Z,100.00
2018-06-02T02:21:16.873Z,100.00
2018-06-02T02:23:44.485Z,100.00
2018-06-02T02:26:12.075Z,100.00
2018-06-02T02:28:39.717Z,100.00
2018-06-02T02:31:07.305Z,100.00
2018-06-02T02:33:34.909Z,100.00
2018-06-02T02:36:02.502Z,100.00
2018-06-02T02:38:30.952Z,100.00
2018-06-02T02:40:59.469Z,100.00
2018-06-02T02:43:27.862Z,100.00
2018-06-02T02:45:56.521Z,100.00
2018-06-02T02:48:24.110Z,100.00
2018-06-02T02:50:52.449Z,100.00
2018-06-02T02:53:20.033Z,100.00
2018-06-02T02:55:48.521Z,100.00
2018-06-02T02:58:16.813Z,100.00
2018-06-02T03:00:44.393Z,100.00
2018-06-02T03:03:11.978Z,100.00
2018-06-02T03:05:41.311Z,100.00
2018-06-02T03:08:09.860Z,100.00
2018-06-02T03:10:38.225Z,100.00
2018-06-02T03:13:06.592Z,100.00
2018-06-02T03:15:34.177Z,100.00
2018-06-02T03:18:02.691Z,100.00
2018-06-02T03:20:30.337Z,100.00
2018-06-02T03:22:58.876Z,100.00
2018-06-02T03:25:27.260Z,100.00
2018-06-02T03:27:55.758Z,100.00
2018-06-02T03:30:24.130Z,100.00
2018-06-02T03:32:51.771Z,100.00
2018-06-02T03:35:20.285Z,100.00
2018-06-02T03:37:47.897Z,100.00
2018-06-02T03:40:16.450Z,100.00
2018-06-02T03:42:45.025Z,100.00
2018-06-02T03:45:12.622Z,100.00
2018-06-02T03:47:41.125Z,100.00
2018-06-02T03:50:09.494Z,100.00
2018-06-02T03:52:37.981Z,100.00
2018-06-02T03:55:05.564Z,100.00
2018-06-02T03:57:34.068Z,100.00
2018-06-02T04:00:02.465Z,100.00
2018-06-02T04:02:30.830Z,100.00
2018-06-02T04:04:58.460Z,100.00
2018-06-02T04:07:26.735Z,100.00
2018-06-02T04:09:55.013Z,100.00
2018-06-02T04:12:23.374Z,100.00
2018-06-02T04:14:51.785Z,100.00
2018-06-02T04:17:19.374Z,100.00
2018-06-02T04:19:47.883Z,100.00
2018-06-02T04:22:15.501Z,100.00
2018-06-02T04:24:44.037Z,100.00
2018-06-02T04:27:11.661Z,100.00
2018-06-02T04:29:39.253Z,100.00
2018-06-02T04:32:07.712Z,100.00
2018-06-02T04:34:35.296Z,100.00
2018-06-02T04:37:03.088Z,100.00
2018-06-02T04:39:30.672Z,100.00
2018-06-02T04:41:59.166Z,100.00
2018-06-02T04:44:26.761Z,100.00
2018-06-02T04:46:54.492Z,100.00
2018-06-02T04:49:22.081Z,100.00
2018-06-02T04:51:50.638Z,100.00
2018-06-02T04:54:18.226Z,100.00
2018-06-02T04:56:46.658Z,100.00
2018-06-02T04:59:14.289Z,100.00
2018-06-02T05:01:41.877Z,100.00
2018-06-02T05:04:10.416Z,99.84
2018-06-02T05:06:38.003Z,100.00
2018-06-02T05:09:06.412Z,100.00
2018-06-02T05:11:34.784Z,100.00
2018-06-02T05:14:02.381Z,100.00
2018-06-02T05:16:29.965Z,100.00
2018-06-02T05:18:58.340Z,98.84
2018-06-02T05:21:25.931Z,98.46
2018-06-02T05:23:54.324Z,98.12
2018-06-02T05:26:22.087Z,98.67
2018-06-02T05:28:49.664Z,97.41
2018-06-02T05:31:17.247Z,98.25
2018-06-02T05:33:44.931Z,98.16
2018-06-02T05:36:12.565Z,98.56
2018-06-02T05:38:40.146Z,98.41
2018-06-02T05:41:07.729Z,97.47
2018-06-02T05:43:35.373Z,97.99
2018-06-02T05:46:02.981Z,97.88
2018-06-02T05:48:30.579Z,98.02
2018-06-02T05:50:58.212Z,97.40
2018-06-02T05:53:25.801Z,96.90
2018-06-02T05:55:54.201Z,96.27
2018-06-02T05:58:22.694Z,96.50
2018-06-02T06:00:51.063Z,95.87
2018-06-02T06:03:19.349Z,95.68
2018-06-02T06:05:47.717Z,94.82
2018-06-02T06:08:16.085Z,94.70
2018-06-02T06:10:44.581Z,95.38
2018-06-02T06:13:12.245Z,96.23
2018-06-02T06:15:40.938Z,96.01
2018-06-02T06:18:08.525Z,95.03
2018-06-02T06:20:36.159Z,94.06
2018-06-02T06:23:03.780Z,92.89
2018-06-02T06:25:31.366Z,93.84
2018-06-02T06:27:58.991Z,94.46
2018-06-02T06:30:26.569Z,93.45
2018-06-02T06:32:54.173Z,94.19
2018-06-02T06:35:21.812Z,94.09
2018-06-02T06:37:49.665Z,91.89
2018-06-02T06:40:17.251Z,89.91
2018-06-02T06:42:45.583Z,92.45
2018-06-02T06:45:13.181Z,92.00
2018-06-02T06:47:41.677Z,91.33
2018-06-02T06:50:09.268Z,91.95
2018-06-02T06:52:36.897Z,90.56
2018-06-02T06:55:04.597Z,90.88
2018-06-02T06:57:33.037Z,92.90
2018-06-02T07:00:00.740Z,91.56
2018-06-02T07:02:28.318Z,88.48
2018-06-02T07:04:56.827Z,88.88
2018-06-02T07:07:25.198Z,89.44
2018-06-02T07:09:53.716Z,88.95
2018-06-02T07:12:21.357Z,88.83
2018-06-02T07:14:53.836Z,87.64
2018-06-02T07:17:28.252Z,89.18
2018-06-02T07:20:00.427Z,89.49
2018-06-02T07:22:28.054Z,87.97
2018-06-02T07:24:55.795Z,87.31
2018-06-02T07:27:24.109Z,88.13
2018-06-02T07:29:52.513Z,88.69
2018-06-02T07:32:20.813Z,85.59
2018-06-02T07:34:48.441Z,85.93
2018-06-02T07:37:16.024Z,86.58
2018-06-02T07:39:43.698Z,85.45
2018-06-02T07:42:12.065Z,86.72
2018-06-02T07:44:39.736Z,86.46
2018-06-02T07:47:08.233Z,86.16
2018-06-02T07:49:36.429Z,84.38
2018-06-02T07:52:04.722Z,87.49
2018-06-02T07:54:32.345Z,85.64
2018-06-02T07:57:00.865Z,82.24
2018-06-02T07:59:28.449Z,85.16
2018-06-02T08:01:56.077Z,84.31
2018-06-02T08:04:23.670Z,86.23
2018-06-02T08:06:52.174Z,83.18
2018-06-02T08:09:19.764Z,83.62
2018-06-02T08:11:47.384Z,85.24
2018-06-02T08:14:15.015Z,87.11
2018-06-02T08:16:43.306Z,83.51
2018-06-02T08:19:11.737Z,80.19
2018-06-02T08:21:40.241Z,85.84
2018-06-02T08:24:08.692Z,82.44
2018-06-02T08:26:37.046Z,85.91
2018-06-02T08:29:05.516Z,82.46
2018-06-02T08:31:33.097Z,84.10
2018-06-02T08:34:00.719Z,85.66
2018-06-02T08:36:28.312Z,81.99
2018-06-02T08:38:55.972Z,82.04
2018-06-02T08:41:24.452Z,85.47
2018-06-02T08:43:52.069Z,80.24
2018-06-02T08:46:19.652Z,84.50
2018-06-02T08:48:47.242Z,79.92
2018-06-02T08:51:14.859Z,82.78
2018-06-02T08:53:42.530Z,78.00
2018-06-02T08:56:10.109Z,74.63
2018-06-02T08:58:37.692Z,75.06
2018-06-02T09:01:05.380Z,75.76
2018-06-02T09:03:33.021Z,77.46
2018-06-02T09:06:00.608Z,78.71
2018-06-02T09:08:28.202Z,77.15
2018-06-02T09:10:56.746Z,75.28
2018-06-02T09:13:24.328Z,71.42
2018-06-02T09:15:51.954Z,72.65
2018-06-02T09:18:19.538Z,74.08
2018-06-02T09:20:47.126Z,75.85
2018-06-02T09:23:15.433Z,71.98
2018-06-02T09:25:44.022Z,74.65
2018-06-02T09:28:11.624Z,76.16
2018-06-02T09:30:39.209Z,74.35
2018-06-02T09:33:06.789Z,77.63
2018-06-02T09:35:34.369Z,70.60
2018-06-02T09:38:02.005Z,70.90
2018-06-02T09:40:29.592Z,76.22
2018-06-02T09:42:57.210Z,75.84
2018-06-02T09:45:24.876Z,72.13
2018-06-02T09:47:52.469Z,72.64
2018-06-02T09:50:20.052Z,73.53
2018-06-02T09:52:47.631Z,71.28
2018-06-02T09:55:15.213Z,72.14
2018-06-02T09:57:42.812Z,72.18
2018-06-02T10:00:11.325Z,67.99
2018-06-02T10:02:39.017Z,65.06
2018-06-02T10:05:06.689Z,69.98
2018-06-02T10:07:34.424Z,67.05
2018-06-02T10:10:02.165Z,66.85
2018-06-02T10:12:29.749Z,68.35
2018-06-02T10:14:57.329Z,73.97
2018-06-02T10:17:24.997Z,70.79
2018-06-02T10:19:52.577Z,70.77
2018-06-02T10:22:20.222Z,67.55
2018-06-02T10:24:47.813Z,71.53
2018-06-02T10:27:15.395Z,74.53
2018-06-02T10:29:43.852Z,73.14
2018-06-02T10:32:11.443Z,72.00
2018-06-02T10:34:39.034Z,74.34
2018-06-02T10:37:06.664Z,69.23
2018-06-02T10:39:34.306Z,71.93
2018-06-02T10:42:03.105Z,70.13
2018-06-02T10:44:30.735Z,70.28
2018-06-02T10:46:59.193Z,68.64
2018-06-02T10:49:26.833Z,67.68
2018-06-02T10:51:54.432Z,69.97
2018-06-02T10:54:22.017Z,66.76
2018-06-02T10:56:50.343Z,66.63
2018-06-02T10:59:18.210Z,62.10
2018-06-02T11:01:45.873Z,62.70
2018-06-02T11:04:13.484Z,61.70
2018-06-02T11:06:41.068Z,60.21
2018-06-02T11:09:08.697Z,59.44
2018-06-02T11:11:36.264Z,59.85
2018-06-02T11:14:03.886Z,58.71
2018-06-02T11:16:31.470Z,63.06
2018-06-02T11:18:59.140Z,62.20
2018-06-02T11:21:26.724Z,63.35
2018-06-02T11:23:54.316Z,58.59
2018-06-02T11:26:21.958Z,56.80
2018-06-02T11:28:49.544Z,56.99
2018-06-02T11:31:17.131Z,57.91
2018-06-02T11:33:44.813Z,53.64
2018-06-02T11:36:12.421Z,55.87
2018-06-02T11:38:40.013Z,61.57
2018-06-02T11:41:07.589Z,59.66
2018-06-02T11:43:35.194Z,60.00
2018-06-02T11:46:02.783Z,58.72
2018-06-02T11:48:30.417Z,62.22
2018-06-02T11:50:58.100Z,60.67
2018-06-02T11:53:25.680Z,57.22
2018-06-02T11:55:53.277Z,58.04
2018-06-02T11:58:20.858Z,61.45
2018-06-02T12:00:48.442Z,64.82
2018-06-02T12:03:16.016Z,61.22
2018-06-02T12:05:43.892Z,60.93
2018-06-02T12:08:12.402Z,63.42
2018-06-02T12:10:40.899Z,62.18
2018-06-02T12:13:08.554Z,64.80
2018-06-02T12:15:36.136Z,63.87
2018-06-02T12:18:04.092Z,62.80
2018-06-02T12:20:31.768Z,64.79
2018-06-02T12:22:59.328Z,60.73
2018-06-02T12:25:26.914Z,60.72
2018-06-02T12:27:54.553Z,60.26
2018-06-02T12:30:22.141Z,61.96
2018-06-02T12:32:49.730Z,61.22
2018-06-02T12:35:17.660Z,57.70
2018-06-02T12:37:45.289Z,59.12
2018-06-02T12:40:13.001Z,58.71
2018-06-02T12:42:40.569Z,59.65
2018-06-02T12:45:08.153Z,61.11
2018-06-02T12:47:35.745Z,59.18
2018-06-02T12:50:03.394Z,59.57
2018-06-02T12:52:30.981Z,61.04
2018-06-02T12:54:58.567Z,63.48
2018-06-02T12:57:26.177Z,61.99
2018-06-02T12:59:53.773Z,60.69
2018-06-02T13:02:21.353Z,61.92
2018-06-02T13:04:48.947Z,65.66
2018-06-02T13:07:16.536Z,66.18
2018-06-02T13:09:44.119Z,65.91
2018-06-02T13:12:12.462Z,67.74
2018-06-02T13:14:40.176Z,68.60
2018-06-02T13:17:07.825Z,68.43
2018-06-02T13:19:35.416Z,69.38
2018-06-02T13:22:02.998Z,70.16
2018-06-02T13:24:30.580Z,71.25
2018-06-02T13:26:58.253Z,74.66
2018-06-02T13:29:25.878Z,74.64
2018-06-02T13:31:53.468Z,76.76
2018-06-02T13:34:21.061Z,77.36
2018-06-02T13:36:48.649Z,76.95
2018-06-02T13:39:16.283Z,79.35
2018-06-02T13:41:43.945Z,78.58
2018-06-02T13:44:11.537Z,80.42
2018-06-02T13:46:39.121Z,79.80
2018-06-02T13:49:06.794Z,81.63
2018-06-02T13:51:34.382Z,79.60
2018-06-02T13:54:01.967Z,79.09
2018-06-02T13:56:30.385Z,82.26
2018-06-02T13:58:58.062Z,79.25
2018-06-02T14:01:25.677Z,81.28
2018-06-02T14:03:54.069Z,81.60
2018-06-02T14:06:21.669Z,81.41
2018-06-02T14:08:49.257Z,79.50
2018-06-02T14:11:17.733Z,79.17
2018-06-02T14:13:46.131Z,77.68
2018-06-02T14:16:13.756Z,77.26
2018-06-02T14:18:41.418Z,80.17
2018-06-02T14:21:09.733Z,78.54
2018-06-02T14:23:37.312Z,79.71
2018-06-02T14:26:04.903Z,80.24
2018-06-02T14:28:32.485Z,82.34
2018-06-02T14:31:00.865Z,82.91
2018-06-02T14:33:29.252Z,81.55
2018-06-02T14:35:57.615Z,84.35
2018-06-02T14:38:26.134Z,81.18
2018-06-02T14:40:54.577Z,81.92
2018-06-02T14:43:22.241Z,82.54
2018-06-02T14:45:50.009Z,83.89
2018-06-02T14:48:17.590Z,82.61
2018-06-02T14:50:45.231Z,84.28
2018-06-02T14:53:12.817Z,84.08
2018-06-02T14:55:41.020Z,81.08
2018-06-02T14:58:08.601Z,81.08
2018-06-02T15:00:36.185Z,82.12
2018-06-02T15:03:03.779Z,86.51
2018-06-02T15:05:31.400Z,84.16
2018-06-02T15:07:58.985Z,83.65
2018-06-02T15:10:26.637Z,86.79
2018-06-02T15:12:54.220Z,87.68
2018-06-02T15:15:21.845Z,87.68
2018-06-02T15:17:49.590Z,82.53
2018-06-02T15:20:17.185Z,82.52
2018-06-02T15:22:45.769Z,84.80
2018-06-02T15:25:14.361Z,84.09
2018-06-02T15:27:42.893Z,82.45
2018-06-02T15:30:10.474Z,84.93
2018-06-02T15:32:39.126Z,84.71
2018-06-02T15:35:12.483Z,78.71
2018-06-02T15:37:40.361Z,76.94
2018-06-02T15:40:09.201Z,77.88
2018-06-02T15:42:37.074Z,77.51
2018-06-02T15:45:05.834Z,77.66
2018-06-02T15:47:33.461Z,71.29
2018-06-02T15:50:01.045Z,71.31
2018-06-02T15:52:28.629Z,72.07
2018-06-02T15:54:57.988Z,72.08
2018-06-02T15:57:25.576Z,69.01
2018-06-02T15:59:53.210Z,67.73
2018-06-02T16:02:20.873Z,74.98
2018-06-02T16:04:49.615Z,71.14
2018-06-02T16:07:17.279Z,75.18
2018-06-02T16:09:44.893Z,75.18
2018-06-02T16:12:12.534Z,69.86
2018-06-02T16:14:40.158Z,73.22
2018-06-02T16:17:08.712Z,68.18
2018-06-02T16:19:36.304Z,70.88
2018-06-02T16:22:03.893Z,70.49
2018-06-02T16:24:31.473Z,68.16
2018-06-02T16:26:59.098Z,65.48
2018-06-02T16:29:27.471Z,63.91
2018-06-02T16:31:55.097Z,62.68
2018-06-02T16:34:23.501Z,62.62
2018-06-02T16:36:51.085Z,63.66
2018-06-02T16:39:18.669Z,63.45
2018-06-02T16:41:46.289Z,64.13
2018-06-02T16:44:13.869Z,64.52
2018-06-02T16:46:41.506Z,64.41
2018-06-02T16:49:09.090Z,65.47
2018-06-02T16:51:37.515Z,64.69
2018-06-02T16:54:05.789Z,63.96
2018-06-02T16:56:33.377Z,64.22
2018-06-02T16:59:00.966Z,64.04
2018-06-02T17:01:28.554Z,65.31
2018-06-02T17:03:56.138Z,64.05
2018-06-02T17:06:23.768Z,65.99
2018-06-02T17:08:51.463Z,66.06
2018-06-02T17:11:19.121Z,64.06
2018-06-02T17:13:46.718Z,66.58
2018-06-02T17:16:14.402Z,65.37
2018-06-02T17:18:42.015Z,69.55
2018-06-02T17:21:09.593Z,67.84
2018-06-02T17:23:37.189Z,68.67
2018-06-02T17:26:04.784Z,66.47
2018-06-02T17:28:32.373Z,67.34
2018-06-02T17:30:59.956Z,70.76
2018-06-02T17:33:27.581Z,72.27
2018-06-02T17:35:55.245Z,72.98
2018-06-02T17:38:23.726Z,76.04
2018-06-02T17:40:52.309Z,74.00
2018-06-02T17:43:20.890Z,76.74
2018-06-02T17:45:49.329Z,77.89
2018-06-02T17:48:16.959Z,76.50
2018-06-02T17:50:45.339Z,77.26
2018-06-02T17:53:12.987Z,78.14
2018-06-02T17:55:40.682Z,77.78
2018-06-02T17:58:08.314Z,79.33
2018-06-02T18:00:35.974Z,77.10
2018-06-02T18:03:03.558Z,74.87
2018-06-02T18:05:31.195Z,73.76
2018-06-02T18:07:58.853Z,76.40
2018-06-02T18:10:26.435Z,76.54
2018-06-02T18:12:54.029Z,76.88
2018-06-02T18:15:21.649Z,75.90
2018-06-02T18:17:49.234Z,76.69
2018-06-02T18:20:16.815Z,76.16
2018-06-02T18:22:45.322Z,77.28
2018-06-02T18:25:13.748Z,77.22
2018-06-02T18:27:42.604Z,77.98
2018-06-02T18:30:10.188Z,77.72
2018-06-02T18:32:37.773Z,81.02
2018-06-02T18:35:05.406Z,79.13
2018-06-02T18:37:32.997Z,81.04
2018-06-02T18:40:00.631Z,80.00
2018-06-02T18:42:29.043Z,79.58
2018-06-02T18:44:56.634Z,80.32
2018-06-02T18:47:24.214Z,79.72
2018-06-02T18:49:51.898Z,82.09
2018-06-02T18:52:19.493Z,80.50
2018-06-02T18:54:48.495Z,80.57
2018-06-02T18:57:16.391Z,83.39
2018-06-02T18:59:44.181Z,82.82
2018-06-02T19:02:12.423Z,82.22
2018-06-02T19:04:40.197Z,84.06
2018-06-02T19:07:07.782Z,83.55
2018-06-02T19:09:35.485Z,85.00
2018-06-02T19:12:03.151Z,85.94
2018-06-02T19:14:30.741Z,85.97
2018-06-02T19:16:58.330Z,87.75
2018-06-02T19:19:25.952Z,89.27
2018-06-02T19:21:54.282Z,88.27
2018-06-02T19:24:21.943Z,88.66
2018-06-02T19:26:50.422Z,89.03
2018-06-02T19:29:18.072Z,89.58
2018-06-02T19:31:45.751Z,89.82
2018-06-02T19:34:13.404Z,88.81
2018-06-02T19:36:41.078Z,88.39
2018-06-02T19:39:08.742Z,89.26
2018-06-02T19:41:36.399Z,87.14
2018-06-02T19:44:04.012Z,86.22
2018-06-02T19:46:32.527Z,85.23
2018-06-02T19:49:00.114Z,86.13
2018-06-02T19:51:27.697Z,85.73
2018-06-02T19:53:55.301Z,85.46
2018-06-02T19:56:23.152Z,86.83
2018-06-02T19:58:51.689Z,86.47
2018-06-02T20:01:19.537Z,85.24
2018-06-02T20:03:47.998Z,85.04
2018-06-02T20:06:16.780Z,87.34
2018-06-02T20:08:44.722Z,85.65
2018-06-02T20:11:12.515Z,88.06
2018-06-02T20:13:40.107Z,87.86
2018-06-02T20:16:07.731Z,88.50
2018-06-02T20:18:35.310Z,88.53
2018-06-02T20:21:02.942Z,87.99
2018-06-02T20:23:30.533Z,88.57
2018-06-02T20:25:58.149Z,88.49
2018-06-02T20:28:25.965Z,88.57
2018-06-02T20:30:53.550Z,87.42
2018-06-02T20:33:21.695Z,87.93
2018-06-02T20:35:50.015Z,88.81
2018-06-02T20:38:18.386Z,88.39
2018-06-02T20:40:47.293Z,89.61
2018-06-02T20:43:14.889Z,89.14
2018-06-02T20:45:44.457Z,87.55
2018-06-02T20:48:12.105Z,86.41
2018-06-02T20:50:39.770Z,85.77
2018-06-02T20:53:07.464Z,85.85
2018-06-02T20:55:35.832Z,84.98
2018-06-02T20:58:04.646Z,85.18
2018-06-02T21:00:32.432Z,85.01
2018-06-02T21:03:00.092Z,84.30
2018-06-02T21:05:28.278Z,84.43
2018-06-02T21:07:57.797Z,84.20
2018-06-02T21:10:25.390Z,84.11
2018-06-02T21:12:53.938Z,83.88
2018-06-02T21:15:21.627Z,84.97
2018-06-02T21:17:49.289Z,84.44
2018-06-02T21:20:18.236Z,84.73
2018-06-02T21:22:47.930Z,84.48
2018-06-02T21:25:15.557Z,85.51
2018-06-02T21:27:43.734Z,83.79
2018-06-02T21:30:12.317Z,85.07
2018-06-02T21:32:42.122Z,83.71
2018-06-02T21:35:13.212Z,83.71
2018-06-02T21:37:42.122Z,83.90
2018-06-02T21:40:11.023Z,83.62
2018-06-02T21:42:39.893Z,83.32
2018-06-02T21:45:10.995Z,83.84
2018-06-02T21:47:38.621Z,83.65
2018-06-02T21:50:07.019Z,84.93
2018-06-02T21:52:35.560Z,83.41
2018-06-02T21:55:03.947Z,83.19
2018-06-02T21:57:31.569Z,84.10
2018-06-02T21:59:59.146Z,83.06
2018-06-02T22:02:26.766Z,83.74
2018-06-02T22:04:54.361Z,83.66
2018-06-02T22:07:22.004Z,83.24
2018-06-02T22:09:49.665Z,83.67
2018-06-02T22:12:18.051Z,83.80
2018-06-02T22:14:46.680Z,83.38
2018-06-02T22:17:14.257Z,83.27
2018-06-02T22:19:42.014Z,83.86
2018-06-02T22:22:09.593Z,84.53
2018-06-02T22:24:37.255Z,86.28
2018-06-02T22:27:06.480Z,84.85
2018-06-02T22:29:34.847Z,87.17
2018-06-02T22:32:03.615Z,85.79
2018-06-02T22:34:31.313Z,85.40
2018-06-02T22:37:01.186Z,85.42
2018-06-02T22:39:29.712Z,84.98
2018-06-02T22:41:57.293Z,85.33
2018-06-02T22:44:24.884Z,86.56
2018-06-02T22:46:52.462Z,86.25
2018-06-02T22:49:20.076Z,84.65
2018-06-02T22:51:57.442Z,84.79
2018-06-02T22:54:25.083Z,84.34
2018-06-02T22:56:53.573Z,84.88
2018-06-02T22:59:21.949Z,84.87
2018-06-02T23:01:49.534Z,85.45
2018-06-02T23:04:17.233Z,84.91
2018-06-02T23:06:44.815Z,84.24
2018-06-02T23:09:12.393Z,84.76
2018-06-02T23:11:41.106Z,84.92
2018-06-02T23:14:10.432Z,85.03
2018-06-02T23:16:38.025Z,85.19
2018-06-02T23:19:07.096Z,84.87
2018-06-02T23:21:35.885Z,84.82
2018-06-02T23:24:04.915Z,84.96
2018-06-02T23:26:33.594Z,86.18
2018-06-02T23:29:02.787Z,86.12
2018-06-02T23:31:31.620Z,85.95
2018-06-02T23:33:59.356Z,86.47
2018-06-02T23:36:28.248Z,86.26
2018-06-02T23:38:56.430Z,85.76
2018-06-02T23:41:24.091Z,85.81
2018-06-02T23:43:51.681Z,86.63
2018-06-02T23:46:20.157Z,85.62
2018-06-02T23:48:48.530Z,86.55
2018-06-02T23:51:17.088Z,86.56
2018-06-02T23:53:45.376Z,86.50
2018-06-02T23:56:13.039Z,86.78
2018-06-02T23:58:41.555Z,88.34
